sensor_id;sensor_type;location;lat;lon;timestamp;P1;durP1;ratioP1;P2;durP2;ratioP2
21675;SDS011;10999;51.332;9.458;2023-09-30T00:01:03;12.63;;;2.72;;
21675;SDS011;10999;51.332;9.458;2023-09-30T00:03:37;8.10;;;2.22;;
21675;SDS011;10999;51.332;9.458;2023-09-30T00:06:05;7.22;;;1.88;;
21675;SDS011;10999;51.332;9.458;2023-09-30T00:08:32;10.52;;;2.40;;
21675;SDS011;10999;51.332;9.458;2023-09-30T00:10:59;10.15;;;2.00;;
21675;SDS011;10999;51.332;9.458;2023-09-30T00:13:26;7.78;;;1.67;;
21675;SDS011;10999;51.332;9.458;2023-09-30T00:15:53;11.05;;;1.92;;
21675;SDS011;10999;51.332;9.458;2023-09-30T00:18:20;10.65;;;2.22;;
21675;SDS011;10999;51.332;9.458;2023-09-30T00:20:47;7.55;;;1.70;;
21675;SDS011;10999;51.332;9.458;2023-09-30T00:23:14;9.88;;;2.42;;
21675;SDS011;10999;51.332;9.458;2023-09-30T00:25:41;8.82;;;1.98;;
21675;SDS011;10999;51.332;9.458;2023-09-30T00:28:08;7.07;;;1.92;;
21675;SDS011;10999;51.332;9.458;2023-09-30T00:30:34;11.93;;;2.30;;
21675;SDS011;10999;51.332;9.458;2023-09-30T00:33:01;5.55;;;1.60;;
21675;SDS011;10999;51.332;9.458;2023-09-30T00:35:28;9.15;;;2.20;;
21675;SDS011;10999;51.332;9.458;2023-09-30T00:37:55;8.90;;;2.42;;
21675;SDS011;10999;51.332;9.458;2023-09-30T00:40:21;7.65;;;1.60;;
21675;SDS011;10999;51.332;9.458;2023-09-30T00:42:48;5.57;;;2.10;;
21675;SDS011;10999;51.332;9.458;2023-09-30T00:45:15;9.43;;;1.88;;
21675;SDS011;10999;51.332;9.458;2023-09-30T00:47:42;9.25;;;2.10;;
21675;SDS011;10999;51.332;9.458;2023-09-30T00:50:10;9.23;;;2.00;;
21675;SDS011;10999;51.332;9.458;2023-09-30T00:52:38;8.80;;;1.90;;
21675;SDS011;10999;51.332;9.458;2023-09-30T00:55:06;12.00;;;2.10;;
21675;SDS011;10999;51.332;9.458;2023-09-30T00:57:34;9.82;;;1.95;;
21675;SDS011;10999;51.332;9.458;2023-09-30T01:00:01;11.13;;;1.90;;
21675;SDS011;10999;51.332;9.458;2023-09-30T01:02:29;8.90;;;2.33;;
21675;SDS011;10999;51.332;9.458;2023-09-30T01:04:56;7.93;;;2.40;;
21675;SDS011;10999;51.332;9.458;2023-09-30T01:07:23;10.45;;;2.38;;
21675;SDS011;10999;51.332;9.458;2023-09-30T01:09:49;9.55;;;2.00;;
21675;SDS011;10999;51.332;9.458;2023-09-30T01:12:16;9.20;;;2.47;;
21675;SDS011;10999;51.332;9.458;2023-09-30T01:14:43;10.23;;;2.17;;
21675;SDS011;10999;51.332;9.458;2023-09-30T01:17:10;9.70;;;1.98;;
21675;SDS011;10999;51.332;9.458;2023-09-30T01:19:40;10.55;;;2.38;;
21675;SDS011;10999;51.332;9.458;2023-09-30T01:22:09;9.93;;;2.47;;
21675;SDS011;10999;51.332;9.458;2023-09-30T01:24:40;7.40;;;1.90;;
21675;SDS011;10999;51.332;9.458;2023-09-30T01:27:08;7.82;;;1.65;;
21675;SDS011;10999;51.332;9.458;2023-09-30T01:29:35;9.75;;;2.38;;
21675;SDS011;10999;51.332;9.458;2023-09-30T01:32:05;10.98;;;2.58;;
21675;SDS011;10999;51.332;9.458;2023-09-30T01:34:35;7.13;;;1.65;;
21675;SDS011;10999;51.332;9.458;2023-09-30T01:37:02;7.85;;;2.00;;
21675;SDS011;10999;51.332;9.458;2023-09-30T01:39:29;8.88;;;2.15;;
21675;SDS011;10999;51.332;9.458;2023-09-30T01:41:56;12.15;;;2.58;;
21675;SDS011;10999;51.332;9.458;2023-09-30T01:44:23;10.30;;;2.13;;
21675;SDS011;10999;51.332;9.458;2023-09-30T01:46:50;8.15;;;1.95;;
21675;SDS011;10999;51.332;9.458;2023-09-30T01:49:17;8.43;;;1.92;;
21675;SDS011;10999;51.332;9.458;2023-09-30T01:51:44;8.57;;;1.88;;
21675;SDS011;10999;51.332;9.458;2023-09-30T01:54:12;9.82;;;2.05;;
21675;SDS011;10999;51.332;9.458;2023-09-30T01:56:38;9.77;;;1.83;;
21675;SDS011;10999;51.332;9.458;2023-09-30T01:59:05;6.07;;;1.50;;
21675;SDS011;10999;51.332;9.458;2023-09-30T02:01:32;6.72;;;2.00;;
21675;SDS011;10999;51.332;9.458;2023-09-30T02:03:59;7.93;;;1.77;;
21675;SDS011;10999;51.332;9.458;2023-09-30T02:06:26;8.35;;;2.08;;
21675;SDS011;10999;51.332;9.458;2023-09-30T02:08:53;9.70;;;2.50;;
21675;SDS011;10999;51.332;9.458;2023-09-30T02:11:19;9.40;;;1.60;;
21675;SDS011;10999;51.332;9.458;2023-09-30T02:13:46;9.90;;;2.30;;
21675;SDS011;10999;51.332;9.458;2023-09-30T02:16:13;10.43;;;1.90;;
21675;SDS011;10999;51.332;9.458;2023-09-30T02:18:42;12.00;;;1.83;;
21675;SDS011;10999;51.332;9.458;2023-09-30T02:21:11;8.95;;;2.20;;
21675;SDS011;10999;51.332;9.458;2023-09-30T02:23:38;9.43;;;1.98;;
21675;SDS011;10999;51.332;9.458;2023-09-30T02:26:05;8.98;;;1.85;;
21675;SDS011;10999;51.332;9.458;2023-09-30T02:28:32;5.80;;;1.67;;
21675;SDS011;10999;51.332;9.458;2023-09-30T02:31:00;6.93;;;1.60;;
21675;SDS011;10999;51.332;9.458;2023-09-30T02:33:27;7.15;;;2.42;;
21675;SDS011;10999;51.332;9.458;2023-09-30T02:35:54;12.38;;;2.22;;
21675;SDS011;10999;51.332;9.458;2023-09-30T02:38:20;6.78;;;1.80;;
21675;SDS011;10999;51.332;9.458;2023-09-30T02:40:47;8.68;;;1.88;;
21675;SDS011;10999;51.332;9.458;2023-09-30T02:43:14;7.13;;;1.90;;
21675;SDS011;10999;51.332;9.458;2023-09-30T02:45:42;8.18;;;2.00;;
21675;SDS011;10999;51.332;9.458;2023-09-30T02:48:10;8.95;;;2.17;;
21675;SDS011;10999;51.332;9.458;2023-09-30T02:50:37;11.18;;;1.90;;
21675;SDS011;10999;51.332;9.458;2023-09-30T02:53:05;11.15;;;2.17;;
21675;SDS011;10999;51.332;9.458;2023-09-30T02:55:32;9.20;;;2.58;;
21675;SDS011;10999;51.332;9.458;2023-09-30T02:57:59;6.90;;;1.70;;
21675;SDS011;10999;51.332;9.458;2023-09-30T03:00:27;7.50;;;1.77;;
21675;SDS011;10999;51.332;9.458;2023-09-30T03:03:00;8.95;;;1.75;;
21675;SDS011;10999;51.332;9.458;2023-09-30T03:05:28;10.85;;;2.15;;
21675;SDS011;10999;51.332;9.458;2023-09-30T03:07:56;9.15;;;1.92;;
21675;SDS011;10999;51.332;9.458;2023-09-30T03:10:23;7.28;;;2.10;;
21675;SDS011;10999;51.332;9.458;2023-09-30T03:12:50;8.90;;;1.92;;
21675;SDS011;10999;51.332;9.458;2023-09-30T03:15:17;10.13;;;1.77;;
21675;SDS011;10999;51.332;9.458;2023-09-30T03:17:45;10.23;;;1.85;;
21675;SDS011;10999;51.332;9.458;2023-09-30T03:20:11;8.25;;;1.75;;
21675;SDS011;10999;51.332;9.458;2023-09-30T03:22:43;10.00;;;1.98;;
21675;SDS011;10999;51.332;9.458;2023-09-30T03:25:14;7.50;;;1.75;;
21675;SDS011;10999;51.332;9.458;2023-09-30T03:27:46;8.32;;;2.10;;
21675;SDS011;10999;51.332;9.458;2023-09-30T03:30:17;8.57;;;2.00;;
21675;SDS011;10999;51.332;9.458;2023-09-30T03:32:46;6.72;;;1.88;;
21675;SDS011;10999;51.332;9.458;2023-09-30T03:35:13;8.32;;;2.00;;
21675;SDS011;10999;51.332;9.458;2023-09-30T03:37:44;8.13;;;2.00;;
21675;SDS011;10999;51.332;9.458;2023-09-30T03:40:13;5.38;;;1.50;;
21675;SDS011;10999;51.332;9.458;2023-09-30T03:42:41;7.43;;;1.63;;
21675;SDS011;10999;51.332;9.458;2023-09-30T03:45:11;6.95;;;1.73;;
21675;SDS011;10999;51.332;9.458;2023-09-30T03:47:40;8.45;;;1.98;;
21675;SDS011;10999;51.332;9.458;2023-09-30T03:50:08;9.88;;;1.80;;
21675;SDS011;10999;51.332;9.458;2023-09-30T03:52:41;7.35;;;1.40;;
21675;SDS011;10999;51.332;9.458;2023-09-30T03:55:13;7.82;;;2.45;;
21675;SDS011;10999;51.332;9.458;2023-09-30T03:57:42;9.18;;;2.47;;
21675;SDS011;10999;51.332;9.458;2023-09-30T04:00:09;7.18;;;1.85;;
21675;SDS011;10999;51.332;9.458;2023-09-30T04:02:42;5.85;;;1.45;;
21675;SDS011;10999;51.332;9.458;2023-09-30T04:05:09;7.68;;;2.25;;
21675;SDS011;10999;51.332;9.458;2023-09-30T04:07:38;7.18;;;1.98;;
21675;SDS011;10999;51.332;9.458;2023-09-30T04:10:05;11.93;;;2.20;;
21675;SDS011;10999;51.332;9.458;2023-09-30T04:12:32;8.30;;;2.00;;
21675;SDS011;10999;51.332;9.458;2023-09-30T04:14:59;13.60;;;2.28;;
21675;SDS011;10999;51.332;9.458;2023-09-30T04:17:26;9.45;;;2.50;;
21675;SDS011;10999;51.332;9.458;2023-09-30T04:19:53;10.57;;;2.53;;
21675;SDS011;10999;51.332;9.458;2023-09-30T04:22:20;9.90;;;2.00;;
21675;SDS011;10999;51.332;9.458;2023-09-30T04:24:51;6.90;;;2.10;;
21675;SDS011;10999;51.332;9.458;2023-09-30T04:27:19;9.80;;;2.90;;
21675;SDS011;10999;51.332;9.458;2023-09-30T04:29:48;7.40;;;1.80;;
21675;SDS011;10999;51.332;9.458;2023-09-30T04:32:16;6.32;;;1.63;;
21675;SDS011;10999;51.332;9.458;2023-09-30T04:34:43;8.82;;;1.90;;
21675;SDS011;10999;51.332;9.458;2023-09-30T04:37:12;6.90;;;1.73;;
21675;SDS011;10999;51.332;9.458;2023-09-30T04:39:40;5.70;;;1.65;;
21675;SDS011;10999;51.332;9.458;2023-09-30T04:42:07;6.63;;;1.75;;
21675;SDS011;10999;51.332;9.458;2023-09-30T04:44:37;8.60;;;2.00;;
21675;SDS011;10999;51.332;9.458;2023-09-30T04:47:04;6.70;;;1.83;;
21675;SDS011;10999;51.332;9.458;2023-09-30T04:49:31;4.38;;;1.42;;
21675;SDS011;10999;51.332;9.458;2023-09-30T04:51:58;7.30;;;1.98;;
21675;SDS011;10999;51.332;9.458;2023-09-30T04:54:25;8.80;;;2.58;;
21675;SDS011;10999;51.332;9.458;2023-09-30T04:56:51;12.65;;;3.40;;
21675;SDS011;10999;51.332;9.458;2023-09-30T04:59:18;7.28;;;2.25;;
21675;SDS011;10999;51.332;9.458;2023-09-30T05:01:45;7.32;;;2.03;;
21675;SDS011;10999;51.332;9.458;2023-09-30T05:04:12;9.48;;;1.98;;
21675;SDS011;10999;51.332;9.458;2023-09-30T05:06:39;7.38;;;1.77;;
21675;SDS011;10999;51.332;9.458;2023-09-30T05:09:06;9.02;;;2.08;;
21675;SDS011;10999;51.332;9.458;2023-09-30T05:11:33;5.15;;;1.65;;
21675;SDS011;10999;51.332;9.458;2023-09-30T05:14:01;10.98;;;1.92;;
21675;SDS011;10999;51.332;9.458;2023-09-30T05:16:31;7.80;;;2.13;;
21675;SDS011;10999;51.332;9.458;2023-09-30T05:18:58;8.27;;;2.20;;
21675;SDS011;10999;51.332;9.458;2023-09-30T05:21:25;7.78;;;2.08;;
21675;SDS011;10999;51.332;9.458;2023-09-30T05:23:53;7.03;;;2.10;;
21675;SDS011;10999;51.332;9.458;2023-09-30T05:26:19;14.05;;;3.55;;
21675;SDS011;10999;51.332;9.458;2023-09-30T05:28:46;7.93;;;2.28;;
21675;SDS011;10999;51.332;9.458;2023-09-30T05:31:13;7.60;;;2.55;;
21675;SDS011;10999;51.332;9.458;2023-09-30T05:33:40;7.95;;;2.20;;
21675;SDS011;10999;51.332;9.458;2023-09-30T05:36:07;6.43;;;2.00;;
21675;SDS011;10999;51.332;9.458;2023-09-30T05:38:35;8.82;;;2.28;;
21675;SDS011;10999;51.332;9.458;2023-09-30T05:41:01;8.27;;;2.58;;
21675;SDS011;10999;51.332;9.458;2023-09-30T05:43:28;8.13;;;2.30;;
21675;SDS011;10999;51.332;9.458;2023-09-30T05:45:56;8.23;;;2.20;;
21675;SDS011;10999;51.332;9.458;2023-09-30T05:48:27;7.22;;;1.95;;
21675;SDS011;10999;51.332;9.458;2023-09-30T05:50:54;6.43;;;2.47;;
21675;SDS011;10999;51.332;9.458;2023-09-30T05:53:21;7.53;;;2.17;;
21675;SDS011;10999;51.332;9.458;2023-09-30T05:55:48;10.02;;;3.47;;
21675;SDS011;10999;51.332;9.458;2023-09-30T05:58:17;8.40;;;2.75;;
21675;SDS011;10999;51.332;9.458;2023-09-30T06:00:43;6.32;;;2.13;;
21675;SDS011;10999;51.332;9.458;2023-09-30T06:03:11;7.63;;;2.50;;
21675;SDS011;10999;51.332;9.458;2023-09-30T06:05:41;7.95;;;2.15;;
21675;SDS011;10999;51.332;9.458;2023-09-30T06:08:08;7.13;;;2.20;;
21675;SDS011;10999;51.332;9.458;2023-09-30T06:10:40;6.97;;;2.10;;
21675;SDS011;10999;51.332;9.458;2023-09-30T06:13:10;9.32;;;2.05;;
21675;SDS011;10999;51.332;9.458;2023-09-30T06:15:38;7.70;;;2.40;;
21675;SDS011;10999;51.332;9.458;2023-09-30T06:18:10;10.18;;;2.80;;
21675;SDS011;10999;51.332;9.458;2023-09-30T06:20:40;11.98;;;3.28;;
21675;SDS011;10999;51.332;9.458;2023-09-30T06:23:07;8.55;;;2.42;;
21675;SDS011;10999;51.332;9.458;2023-09-30T06:25:36;8.05;;;2.30;;
21675;SDS011;10999;51.332;9.458;2023-09-30T06:28:03;7.45;;;2.35;;
21675;SDS011;10999;51.332;9.458;2023-09-30T06:30:30;8.25;;;2.63;;
21675;SDS011;10999;51.332;9.458;2023-09-30T06:32:59;10.30;;;3.05;;
21675;SDS011;10999;51.332;9.458;2023-09-30T06:35:28;10.52;;;3.20;;
21675;SDS011;10999;51.332;9.458;2023-09-30T06:37:56;10.18;;;2.80;;
21675;SDS011;10999;51.332;9.458;2023-09-30T06:40:23;9.43;;;2.75;;
21675;SDS011;10999;51.332;9.458;2023-09-30T06:42:50;10.40;;;3.40;;
21675;SDS011;10999;51.332;9.458;2023-09-30T06:45:18;10.88;;;3.65;;
21675;SDS011;10999;51.332;9.458;2023-09-30T06:47:45;8.82;;;2.88;;
21675;SDS011;10999;51.332;9.458;2023-09-30T06:50:12;11.60;;;3.40;;
21675;SDS011;10999;51.332;9.458;2023-09-30T06:52:43;8.85;;;2.95;;
21675;SDS011;10999;51.332;9.458;2023-09-30T06:55:16;13.05;;;3.35;;
21675;SDS011;10999;51.332;9.458;2023-09-30T06:57:43;10.23;;;2.92;;
21675;SDS011;10999;51.332;9.458;2023-09-30T07:00:11;13.02;;;3.42;;
21675;SDS011;10999;51.332;9.458;2023-09-30T07:02:40;8.45;;;2.78;;
21675;SDS011;10999;51.332;9.458;2023-09-30T07:05:13;10.65;;;2.63;;
21675;SDS011;10999;51.332;9.458;2023-09-30T07:07:41;10.50;;;3.33;;
21675;SDS011;10999;51.332;9.458;2023-09-30T07:10:12;10.68;;;3.15;;
21675;SDS011;10999;51.332;9.458;2023-09-30T07:12:39;12.75;;;3.05;;
21675;SDS011;10999;51.332;9.458;2023-09-30T07:15:07;10.23;;;3.22;;
21675;SDS011;10999;51.332;9.458;2023-09-30T07:17:34;11.25;;;3.90;;
21675;SDS011;10999;51.332;9.458;2023-09-30T07:20:02;12.13;;;3.40;;
21675;SDS011;10999;51.332;9.458;2023-09-30T07:22:31;13.55;;;4.22;;
21675;SDS011;10999;51.332;9.458;2023-09-30T07:25:18;13.32;;;3.70;;
21675;SDS011;10999;51.332;9.458;2023-09-30T07:27:44;9.32;;;3.28;;
21675;SDS011;10999;51.332;9.458;2023-09-30T07:30:12;8.25;;;3.13;;
21675;SDS011;10999;51.332;9.458;2023-09-30T07:32:42;11.27;;;3.85;;
21675;SDS011;10999;51.332;9.458;2023-09-30T07:35:09;9.43;;;3.03;;
21675;SDS011;10999;51.332;9.458;2023-09-30T07:37:36;11.05;;;3.50;;
21675;SDS011;10999;51.332;9.458;2023-09-30T07:40:03;11.57;;;3.97;;
21675;SDS011;10999;51.332;9.458;2023-09-30T07:42:31;11.63;;;3.42;;
21675;SDS011;10999;51.332;9.458;2023-09-30T07:45:00;10.80;;;3.13;;
21675;SDS011;10999;51.332;9.458;2023-09-30T07:47:27;11.18;;;3.28;;
21675;SDS011;10999;51.332;9.458;2023-09-30T07:49:53;11.38;;;3.00;;
21675;SDS011;10999;51.332;9.458;2023-09-30T07:52:20;9.98;;;3.22;;
21675;SDS011;10999;51.332;9.458;2023-09-30T07:54:47;8.93;;;2.60;;
21675;SDS011;10999;51.332;9.458;2023-09-30T07:57:14;11.57;;;2.88;;
21675;SDS011;10999;51.332;9.458;2023-09-30T07:59:41;10.80;;;3.08;;
21675;SDS011;10999;51.332;9.458;2023-09-30T08:02:07;10.85;;;2.92;;
21675;SDS011;10999;51.332;9.458;2023-09-30T08:04:34;9.27;;;2.97;;
21675;SDS011;10999;51.332;9.458;2023-09-30T08:07:02;9.63;;;3.20;;
21675;SDS011;10999;51.332;9.458;2023-09-30T08:09:29;11.93;;;2.58;;
21675;SDS011;10999;51.332;9.458;2023-09-30T08:11:56;8.40;;;2.60;;
21675;SDS011;10999;51.332;9.458;2023-09-30T08:14:23;9.85;;;2.53;;
21675;SDS011;10999;51.332;9.458;2023-09-30T08:16:49;8.63;;;2.25;;
21675;SDS011;10999;51.332;9.458;2023-09-30T08:19:16;9.93;;;2.60;;
21675;SDS011;10999;51.332;9.458;2023-09-30T08:21:43;8.57;;;2.25;;
21675;SDS011;10999;51.332;9.458;2023-09-30T08:24:11;11.30;;;2.17;;
21675;SDS011;10999;51.332;9.458;2023-09-30T08:26:38;12.73;;;3.17;;
21675;SDS011;10999;51.332;9.458;2023-09-30T08:29:04;8.70;;;2.20;;
21675;SDS011;10999;51.332;9.458;2023-09-30T08:31:32;8.55;;;2.40;;
21675;SDS011;10999;51.332;9.458;2023-09-30T08:33:59;9.70;;;2.50;;
21675;SDS011;10999;51.332;9.458;2023-09-30T08:36:26;12.13;;;2.65;;
21675;SDS011;10999;51.332;9.458;2023-09-30T08:38:53;9.02;;;2.13;;
21675;SDS011;10999;51.332;9.458;2023-09-30T08:41:33;9.38;;;2.00;;
21675;SDS011;10999;51.332;9.458;2023-09-30T08:44:06;11.40;;;2.63;;
21675;SDS011;10999;51.332;9.458;2023-09-30T08:46:33;10.00;;;1.65;;
21675;SDS011;10999;51.332;9.458;2023-09-30T08:49:01;9.10;;;2.28;;
21675;SDS011;10999;51.332;9.458;2023-09-30T08:51:30;8.40;;;2.20;;
21675;SDS011;10999;51.332;9.458;2023-09-30T08:54:00;13.25;;;2.53;;
21675;SDS011;10999;51.332;9.458;2023-09-30T08:56:30;10.80;;;2.20;;
21675;SDS011;10999;51.332;9.458;2023-09-30T08:59:01;6.35;;;1.80;;
21675;SDS011;10999;51.332;9.458;2023-09-30T09:01:29;11.88;;;2.13;;
21675;SDS011;10999;51.332;9.458;2023-09-30T09:03:56;9.13;;;2.00;;
21675;SDS011;10999;51.332;9.458;2023-09-30T09:06:24;9.27;;;2.17;;
21675;SDS011;10999;51.332;9.458;2023-09-30T09:08:52;10.50;;;2.08;;
21675;SDS011;10999;51.332;9.458;2023-09-30T09:11:19;8.45;;;1.92;;
21675;SDS011;10999;51.332;9.458;2023-09-30T09:13:47;10.18;;;2.20;;
21675;SDS011;10999;51.332;9.458;2023-09-30T09:16:17;7.10;;;1.40;;
21675;SDS011;10999;51.332;9.458;2023-09-30T09:18:45;6.60;;;1.48;;
21675;SDS011;10999;51.332;9.458;2023-09-30T09:21:23;8.40;;;2.15;;
21675;SDS011;10999;51.332;9.458;2023-09-30T09:23:53;8.10;;;1.60;;
21675;SDS011;10999;51.332;9.458;2023-09-30T09:26:27;8.57;;;2.70;;
21675;SDS011;10999;51.332;9.458;2023-09-30T09:28:57;8.68;;;2.03;;
21675;SDS011;10999;51.332;9.458;2023-09-30T09:31:26;8.13;;;1.90;;
21675;SDS011;10999;51.332;9.458;2023-09-30T09:33:54;8.38;;;2.00;;
21675;SDS011;10999;51.332;9.458;2023-09-30T09:36:22;7.80;;;1.67;;
21675;SDS011;10999;51.332;9.458;2023-09-30T09:39:09;9.35;;;1.85;;
21675;SDS011;10999;51.332;9.458;2023-09-30T09:41:49;10.63;;;2.00;;
21675;SDS011;10999;51.332;9.458;2023-09-30T09:44:20;7.53;;;1.55;;
21675;SDS011;10999;51.332;9.458;2023-09-30T09:46:49;8.05;;;2.45;;
21675;SDS011;10999;51.332;9.458;2023-09-30T09:49:17;10.30;;;1.67;;
21675;SDS011;10999;51.332;9.458;2023-09-30T09:51:48;9.70;;;1.77;;
21675;SDS011;10999;51.332;9.458;2023-09-30T09:54:16;5.38;;;1.50;;
21675;SDS011;10999;51.332;9.458;2023-09-30T09:56:46;7.78;;;1.50;;
21675;SDS011;10999;51.332;9.458;2023-09-30T09:59:15;7.78;;;1.50;;
21675;SDS011;10999;51.332;9.458;2023-09-30T10:01:42;8.32;;;2.13;;
21675;SDS011;10999;51.332;9.458;2023-09-30T10:04:11;6.93;;;1.15;;
21675;SDS011;10999;51.332;9.458;2023-09-30T10:06:41;6.65;;;1.13;;
21675;SDS011;10999;51.332;9.458;2023-09-30T10:09:10;8.55;;;1.67;;
21675;SDS011;10999;51.332;9.458;2023-09-30T10:11:38;5.57;;;1.10;;
21675;SDS011;10999;51.332;9.458;2023-09-30T10:14:08;8.65;;;1.20;;
21675;SDS011;10999;51.332;9.458;2023-09-30T10:16:56;7.93;;;1.45;;
21675;SDS011;10999;51.332;9.458;2023-09-30T10:19:23;6.95;;;1.40;;
21675;SDS011;10999;51.332;9.458;2023-09-30T10:24:58;7.95;;;1.30;;
21675;SDS011;10999;51.332;9.458;2023-09-30T10:29:59;8.38;;;2.15;;
21675;SDS011;10999;51.332;9.458;2023-09-30T10:35:17;6.60;;;1.15;;
21675;SDS011;10999;51.332;9.458;2023-09-30T10:37:44;6.45;;;1.20;;
21675;SDS011;10999;51.332;9.458;2023-09-30T10:40:45;10.75;;;1.45;;
21675;SDS011;10999;51.332;9.458;2023-09-30T10:43:05;6.75;;;1.60;;
21675;SDS011;10999;51.332;9.458;2023-09-30T10:45:52;4.72;;;1.10;;
21675;SDS011;10999;51.332;9.458;2023-09-30T10:50:52;8.40;;;1.10;;
21675;SDS011;10999;51.332;9.458;2023-09-30T10:53:24;10.70;;;1.50;;
21675;SDS011;10999;51.332;9.458;2023-09-30T10:55:56;5.75;;;1.10;;
21675;SDS011;10999;51.332;9.458;2023-09-30T11:01:06;5.43;;;1.08;;
21675;SDS011;10999;51.332;9.458;2023-09-30T11:03:34;6.45;;;1.00;;
21675;SDS011;10999;51.332;9.458;2023-09-30T11:06:02;7.82;;;1.17;;
21675;SDS011;10999;51.332;9.458;2023-09-30T11:08:38;6.40;;;1.08;;
21675;SDS011;10999;51.332;9.458;2023-09-30T11:11:10;8.02;;;1.40;;
21675;SDS011;10999;51.332;9.458;2023-09-30T11:13:36;9.20;;;1.20;;
21675;SDS011;10999;51.332;9.458;2023-09-30T11:16:05;3.17;;;0.88;;
21675;SDS011;10999;51.332;9.458;2023-09-30T11:18:32;5.72;;;0.98;;
21675;SDS011;10999;51.332;9.458;2023-09-30T11:21:09;6.50;;;1.00;;
21675;SDS011;10999;51.332;9.458;2023-09-30T11:23:39;7.32;;;1.13;;
21675;SDS011;10999;51.332;9.458;2023-09-30T11:26:07;7.75;;;0.93;;
21675;SDS011;10999;51.332;9.458;2023-09-30T11:28:41;6.70;;;1.00;;
21675;SDS011;10999;51.332;9.458;2023-09-30T11:31:10;8.18;;;1.20;;
21675;SDS011;10999;51.332;9.458;2023-09-30T11:33:49;9.63;;;2.38;;
21675;SDS011;10999;51.332;9.458;2023-09-30T11:36:20;6.10;;;1.00;;
21675;SDS011;10999;51.332;9.458;2023-09-30T11:38:48;8.68;;;2.05;;
21675;SDS011;10999;51.332;9.458;2023-09-30T11:41:16;5.25;;;1.20;;
21675;SDS011;10999;51.332;9.458;2023-09-30T11:46:27;4.60;;;0.90;;
21675;SDS011;10999;51.332;9.458;2023-09-30T11:49:01;4.50;;;1.20;;
21675;SDS011;10999;51.332;9.458;2023-09-30T11:51:29;4.63;;;1.10;;
21675;SDS011;10999;51.332;9.458;2023-09-30T11:54:13;6.22;;;1.30;;
21675;SDS011;10999;51.332;9.458;2023-09-30T11:56:40;4.20;;;1.23;;
21675;SDS011;10999;51.332;9.458;2023-09-30T11:59:07;3.60;;;0.75;;
21675;SDS011;10999;51.332;9.458;2023-09-30T12:01:37;5.40;;;0.95;;
21675;SDS011;10999;51.332;9.458;2023-09-30T12:04:04;5.55;;;1.23;;
21675;SDS011;10999;51.332;9.458;2023-09-30T12:06:31;5.15;;;1.10;;
21675;SDS011;10999;51.332;9.458;2023-09-30T12:09:00;4.97;;;1.00;;
21675;SDS011;10999;51.332;9.458;2023-09-30T12:11:29;4.82;;;0.80;;
21675;SDS011;10999;51.332;9.458;2023-09-30T12:13:55;6.00;;;1.20;;
21675;SDS011;10999;51.332;9.458;2023-09-30T12:16:22;4.78;;;1.08;;
21675;SDS011;10999;51.332;9.458;2023-09-30T12:18:50;6.00;;;1.08;;
21675;SDS011;10999;51.332;9.458;2023-09-30T12:21:17;4.38;;;0.95;;
21675;SDS011;10999;51.332;9.458;2023-09-30T12:23:47;8.25;;;1.25;;
21675;SDS011;10999;51.332;9.458;2023-09-30T12:26:14;4.82;;;1.10;;
21675;SDS011;10999;51.332;9.458;2023-09-30T12:28:45;5.53;;;1.30;;
21675;SDS011;10999;51.332;9.458;2023-09-30T12:31:13;6.18;;;1.20;;
21675;SDS011;10999;51.332;9.458;2023-09-30T12:33:40;3.17;;;0.77;;
21675;SDS011;10999;51.332;9.458;2023-09-30T12:36:07;6.47;;;1.85;;
21675;SDS011;10999;51.332;9.458;2023-09-30T12:38:34;6.53;;;1.10;;
21675;SDS011;10999;51.332;9.458;2023-09-30T12:41:01;7.35;;;1.20;;
21675;SDS011;10999;51.332;9.458;2023-09-30T12:43:27;4.63;;;1.42;;
21675;SDS011;10999;51.332;9.458;2023-09-30T12:45:54;6.05;;;1.20;;
21675;SDS011;10999;51.332;9.458;2023-09-30T12:48:21;5.13;;;1.20;;
21675;SDS011;10999;51.332;9.458;2023-09-30T12:50:48;6.30;;;1.00;;
21675;SDS011;10999;51.332;9.458;2023-09-30T12:53:14;5.75;;;1.20;;
21675;SDS011;10999;51.332;9.458;2023-09-30T12:55:41;5.65;;;1.25;;
21675;SDS011;10999;51.332;9.458;2023-09-30T12:58:08;4.93;;;1.02;;
21675;SDS011;10999;51.332;9.458;2023-09-30T13:00:35;5.05;;;0.90;;
21675;SDS011;10999;51.332;9.458;2023-09-30T13:03:02;6.50;;;1.90;;
21675;SDS011;10999;51.332;9.458;2023-09-30T13:05:30;3.08;;;0.80;;
21675;SDS011;10999;51.332;9.458;2023-09-30T13:07:57;5.78;;;1.30;;
21675;SDS011;10999;51.332;9.458;2023-09-30T13:10:24;8.48;;;2.03;;
21675;SDS011;10999;51.332;9.458;2023-09-30T13:12:51;3.97;;;0.82;;
21675;SDS011;10999;51.332;9.458;2023-09-30T13:15:20;7.38;;;1.45;;
21675;SDS011;10999;51.332;9.458;2023-09-30T13:17:52;4.95;;;0.90;;
21675;SDS011;10999;51.332;9.458;2023-09-30T13:20:19;5.85;;;1.20;;
21675;SDS011;10999;51.332;9.458;2023-09-30T13:22:46;6.43;;;1.15;;
21675;SDS011;10999;51.332;9.458;2023-09-30T13:25:12;4.60;;;0.90;;
21675;SDS011;10999;51.332;9.458;2023-09-30T13:27:39;4.47;;;1.00;;
21675;SDS011;10999;51.332;9.458;2023-09-30T13:30:11;5.47;;;1.20;;
21675;SDS011;10999;51.332;9.458;2023-09-30T13:32:37;4.85;;;1.17;;
21675;SDS011;10999;51.332;9.458;2023-09-30T13:35:05;6.55;;;1.70;;
21675;SDS011;10999;51.332;9.458;2023-09-30T13:37:33;5.57;;;1.40;;
21675;SDS011;10999;51.332;9.458;2023-09-30T13:40:00;7.18;;;1.20;;
21675;SDS011;10999;51.332;9.458;2023-09-30T13:42:30;5.25;;;1.17;;
21675;SDS011;10999;51.332;9.458;2023-09-30T13:44:57;6.57;;;1.33;;
21675;SDS011;10999;51.332;9.458;2023-09-30T13:47:27;6.45;;;1.10;;
21675;SDS011;10999;51.332;9.458;2023-09-30T13:49:53;7.00;;;1.10;;
21675;SDS011;10999;51.332;9.458;2023-09-30T13:52:21;3.10;;;1.00;;
21675;SDS011;10999;51.332;9.458;2023-09-30T13:54:48;4.47;;;0.90;;
21675;SDS011;10999;51.332;9.458;2023-09-30T13:57:15;6.00;;;1.25;;
21675;SDS011;10999;51.332;9.458;2023-09-30T13:59:41;4.13;;;1.10;;
21675;SDS011;10999;51.332;9.458;2023-09-30T14:02:08;5.53;;;1.40;;
21675;SDS011;10999;51.332;9.458;2023-09-30T14:04:35;6.43;;;1.15;;
21675;SDS011;10999;51.332;9.458;2023-09-30T14:07:02;5.93;;;1.30;;
21675;SDS011;10999;51.332;9.458;2023-09-30T14:09:29;4.40;;;0.82;;
21675;SDS011;10999;51.332;9.458;2023-09-30T14:12:02;6.90;;;1.20;;
21675;SDS011;10999;51.332;9.458;2023-09-30T14:14:31;5.38;;;1.23;;
21675;SDS011;10999;51.332;9.458;2023-09-30T14:17:00;5.88;;;1.23;;
21675;SDS011;10999;51.332;9.458;2023-09-30T14:19:33;10.55;;;1.73;;
21675;SDS011;10999;51.332;9.458;2023-09-30T14:22:01;4.53;;;1.40;;
21675;SDS011;10999;51.332;9.458;2023-09-30T14:24:27;7.15;;;1.20;;
21675;SDS011;10999;51.332;9.458;2023-09-30T14:26:55;6.32;;;1.63;;
21675;SDS011;10999;51.332;9.458;2023-09-30T14:29:22;7.05;;;1.45;;
21675;SDS011;10999;51.332;9.458;2023-09-30T14:31:48;6.22;;;1.60;;
21675;SDS011;10999;51.332;9.458;2023-09-30T14:34:15;5.63;;;1.20;;
21675;SDS011;10999;51.332;9.458;2023-09-30T14:36:42;4.90;;;1.45;;
21675;SDS011;10999;51.332;9.458;2023-09-30T14:39:09;5.82;;;1.10;;
21675;SDS011;10999;51.332;9.458;2023-09-30T14:41:40;5.03;;;1.40;;
21675;SDS011;10999;51.332;9.458;2023-09-30T14:44:07;3.67;;;1.10;;
21675;SDS011;10999;51.332;9.458;2023-09-30T14:46:34;6.22;;;1.20;;
21675;SDS011;10999;51.332;9.458;2023-09-30T14:49:01;5.38;;;1.23;;
21675;SDS011;10999;51.332;9.458;2023-09-30T14:51:28;5.03;;;1.20;;
21675;SDS011;10999;51.332;9.458;2023-09-30T14:53:55;6.10;;;1.20;;
21675;SDS011;10999;51.332;9.458;2023-09-30T14:56:22;4.20;;;1.45;;
21675;SDS011;10999;51.332;9.458;2023-09-30T14:58:49;5.18;;;1.40;;
21675;SDS011;10999;51.332;9.458;2023-09-30T15:01:15;4.88;;;1.52;;
21675;SDS011;10999;51.332;9.458;2023-09-30T15:03:43;5.03;;;1.55;;
21675;SDS011;10999;51.332;9.458;2023-09-30T15:06:10;5.28;;;1.30;;
21675;SDS011;10999;51.332;9.458;2023-09-30T15:08:39;5.30;;;1.70;;